Airfield :
LOGIN :

Register | Disclaimer

   EN    FR    IT 

 










Legend :    VFR   Marginal VFR   IFR   Intensive IFR   Very Intensive IFR
Visi :
Ceiling :
>= 8 km
>= 3000ft
5 to 8 km
1000 to 3000 ft
1500m to 5 km
500 to 1000 ft
800 to 1500m
200 to 500 ft
< 800m
< 200 ft
Symbols :   Thunderstorms  Fog  Heavy snow  Heavy precipitations  Wind > 20 kt
SIGMETs :     Misc.  Thunderstorms  Icing  Turbulence  Mountain Waves  Volcanic Ashes







- Airport Elevation : 158 ft
- IATA code : QAR


EHDL - Deelen Airbase

CURRENT METAR :
  • 251555Z AUTO 17005KT 110V220 9999 SCT360 15/05 Q1037 BLU

EXPIRED METARs :
  • 251525Z AUTO VRB02KT 9999 BKN051 BKN056 BKN320 15/06 Q1037 BLU
  • 251455Z AUTO 08003KT 050V140 9999 BKN043 OVC048 14/06 Q1037 BLU
  • 251425Z AUTO VRB02KT 9999 OVC051 15/06 Q1037 BLU
  • 251355Z AUTO 10003KT 060V160 9999 BKN040 OVC045 14/07 Q1038 BLU
  • 251325Z AUTO 10003KT 070V200 9999 FEW052 OVC360 14/07 Q1038 BLU
  • 251255Z AUTO 22003KT 130V260 9999 OVC320 15/04 Q1038 BLU

TAF TAF EHDL
Valid from the 25 at 13:00 until the 26 at 01:00 UTC


251219Z 2513/2601 VRB02KT CAVOK
BECMG 2519/2522 18004KT CAVOK
No reported NOTAMs for that airfield.



MET'MAP, your aeronautical weather chart ! - Copyright ORBIFLY December 2007 - Disclaimer

ORBIFLY MET'MAP TEAM :

Programming & Development : Alexandra Zaïnal
Concept & Development : Baudouin d'Aumeries
Co-Development & Prog : Marc-Olivier Méhu
Technical & hardware support : Manuel Goepfert

Contact : metmap@orbifly.com




SOURCES & CREDITS :

   NOAA